Time;durP1;ratioP1;P1;durP2;ratioP2;P2;SDS_P1;SDS_P2;PMS_P1;PMS_P2;Temp;Humidity;BMP_temperature;BMP_pressure;BME280_temperature;BME280_humidity;BME280_pressure;Samples;Min_cycle;Max_cycle;Signal;HPM_P1;HPM_P2
2021/11/20 00:00:22;;;;;;;24.80;10.30;;;;;;;-145.69;100.00;73761.06;5093264;28;20202;-81
2021/11/20 00:02:49;;;;;;;31.47;11.00;;;;;;;-145.69;100.00;73749.13;5093244;28;20198;-81
2021/11/20 00:05:20;;;;;;;23.80;10.23;;;;;;;-145.69;100.00;73747.13;5093417;28;20209;-81
2021/11/20 00:07:47;;;;;;;30.57;10.57;;;;;;;-145.69;100.00;73741.16;5093255;28;20202;-81
2021/11/20 00:10:16;;;;;;;34.03;10.77;;;;;;;-145.69;100.00;73731.22;5093325;28;20224;-82
2021/11/20 00:12:43;;;;;;;33.17;10.77;;;;;;;-145.69;100.00;73721.25;5093160;28;20259;-82
2021/11/20 00:15:12;;;;;;;30.43;10.43;;;;;;;-145.69;100.00;73725.25;5095306;28;20194;-82
2021/11/20 00:17:39;;;;;;;24.73;10.87;;;;;;;-145.69;100.00;73713.28;5093217;28;20233;-81
2021/11/20 00:20:08;;;;;;;23.73;9.23;;;;;;;-145.69;100.00;73717.28;5093156;28;20199;-82
2021/11/20 00:22:39;;;;;;;22.40;9.83;;;;;;;-145.69;100.00;73713.28;5093084;28;20207;-82
2021/11/20 00:25:19;;;;;;;24.67;9.90;;;;;;;-145.69;100.00;73707.31;5092950;28;20234;-81
2021/11/20 00:27:46;;;;;;;19.60;8.40;;;;;;;-145.69;100.00;73715.28;5092956;28;20236;-81
2021/11/20 00:30:15;;;;;;;21.67;9.00;;;;;;;-145.69;100.00;73711.31;5093002;28;20205;-81
2021/11/20 00:32:45;;;;;;;19.37;8.63;;;;;;;-145.69;100.00;73705.34;5093048;28;20221;-81
2021/11/20 00:35:15;;;;;;;20.57;8.80;;;;;;;-145.69;100.00;73703.34;5094491;28;20201;-82
2021/11/20 00:37:43;;;;;;;23.10;9.27;;;;;;;-145.69;100.00;73701.34;5096636;28;20751;-81
2021/11/20 00:40:16;;;;;;;21.80;9.30;;;;;;;-145.69;100.00;73701.34;5096831;28;20198;-80
2021/11/20 00:42:43;;;;;;;28.40;9.17;;;;;;;-145.69;100.00;73703.34;5096689;28;20194;-81
2021/11/20 00:45:10;;;;;;;18.70;9.13;;;;;;;-145.69;100.00;73699.34;5096746;28;20198;-81
2021/11/20 00:47:37;;;;;;;18.87;8.63;;;;;;;-145.69;100.00;73701.34;5096539;28;20199;-81
2021/11/20 00:50:04;;;;;;;19.90;8.07;;;;;;;-145.69;100.00;73719.25;5096573;28;20232;-81
2021/11/20 00:52:31;;;;;;;17.57;7.70;;;;;;;-145.69;100.00;73743.16;5096403;28;20206;-81
2021/11/20 00:54:59;;;;;;;18.07;7.73;;;;;;;-145.69;100.00;73749.13;5096393;28;20206;-81
2021/11/20 00:57:25;;;;;;;17.50;8.10;;;;;;;-145.69;100.00;73747.13;5096326;28;20226;-81
2021/11/20 00:59:52;;;;;;;16.70;7.57;;;;;;;-145.69;100.00;73739.19;5096313;28;20198;-81
2021/11/20 01:02:18;;;;;;;18.17;7.60;;;;;;;-145.69;100.00;73739.19;5096241;28;20591;-81
2021/11/20 01:04:44;;;;;;;16.87;8.20;;;;;;;-145.69;100.00;73735.19;5096115;28;20288;-81
2021/11/20 01:07:11;;;;;;;31.93;8.40;;;;;;;-145.69;100.00;73735.19;5096089;28;20206;-81
2021/11/20 01:09:45;;;;;;;20.33;8.10;;;;;;;-145.69;100.00;73735.19;5096136;28;20701;-81
2021/11/20 01:12:16;;;;;;;17.93;8.33;;;;;;;-145.69;100.00;73737.19;5096298;28;20213;-81
2021/11/20 01:14:45;;;;;;;15.80;7.63;;;;;;;-145.69;100.00;73723.25;5095906;28;20557;-81
2021/11/20 01:17:13;;;;;;;20.10;8.43;;;;;;;-145.69;100.00;73731.22;5095662;28;20256;-81
2021/11/20 01:19:40;;;;;;;18.07;8.67;;;;;;;-145.69;100.00;73731.22;5095771;28;20194;-81
2021/11/20 01:22:11;;;;;;;18.07;8.30;;;;;;;-145.69;100.00;73739.19;5095867;28;20263;-80
2021/11/20 01:24:37;;;;;;;27.70;8.30;;;;;;;-145.69;100.00;73741.16;5095577;28;20696;-81
2021/11/20 01:27:05;;;;;;;33.93;9.30;;;;;;;-145.69;100.00;73743.16;5095573;28;20259;-80
2021/11/20 01:29:33;;;;;;;25.07;9.33;;;;;;;-145.69;100.00;73747.13;5100979;28;20762;-80
2021/11/20 01:32:00;;;;;;;28.77;8.53;;;;;;;-145.69;100.00;73743.16;5116027;28;20607;-81
2021/11/20 01:34:28;;;;;;;35.23;9.93;;;;;;;-145.69;100.00;73743.16;5115738;28;20205;-81
2021/11/20 01:36:57;;;;;;;20.37;8.23;;;;;;;-145.69;100.00;73747.13;5115933;28;20274;-81
2021/11/20 01:39:28;;;;;;;21.17;8.37;;;;;;;-145.69;100.00;73739.19;5115339;28;20251;-82
2021/11/20 01:41:57;;;;;;;23.33;8.97;;;;;;;-145.69;100.00;73739.19;5115996;28;20205;-82
2021/11/20 01:44:28;;;;;;;20.80;8.73;;;;;;;-145.69;100.00;73739.19;5115553;28;20322;-81
2021/11/20 01:47:00;;;;;;;22.43;8.60;;;;;;;-145.69;100.00;73723.25;5114821;28;20243;-81
2021/11/20 01:49:29;;;;;;;18.67;7.97;;;;;;;-145.69;100.00;73715.28;5115766;28;20201;-81
2021/11/20 01:52:07;;;;;;;18.63;8.10;;;;;;;-145.69;100.00;73711.31;5115865;28;20201;-81
2021/11/20 01:54:46;;;;;;;22.57;8.27;;;;;;;-145.69;100.00;73715.28;5097713;28;20197;-81
2021/11/20 01:57:20;;;;;;;27.47;8.73;;;;;;;-145.69;100.00;73717.28;5115842;28;20633;-82
2021/11/20 01:59:54;;;;;;;19.80;7.97;;;;;;;-145.69;100.00;73711.31;5116223;28;20197;-82
2021/11/20 02:02:28;;;;;;;24.87;8.63;;;;;;;-145.69;100.00;73707.31;5115749;28;20197;-81
2021/11/20 02:05:00;;;;;;;21.80;8.40;;;;;;;-145.69;100.00;73697.38;5115451;28;20205;-82
2021/11/20 02:07:31;;;;;;;19.17;7.83;;;;;;;-145.69;100.00;73689.41;5115349;28;20254;-81
2021/11/20 02:10:05;;;;;;;18.47;7.57;;;;;;;-145.69;100.00;73675.47;5105862;28;20202;-82
2021/11/20 02:12:35;;;;;;;19.77;7.77;;;;;;;-145.69;100.00;73685.41;5094869;28;20202;-81
2021/11/20 02:15:06;;;;;;;18.77;7.37;;;;;;;-145.69;100.00;73683.44;5094927;28;20198;-81
2021/11/20 02:17:37;;;;;;;18.97;7.17;;;;;;;-145.69;100.00;73679.44;5094639;28;20696;-81
2021/11/20 02:20:10;;;;;;;23.07;7.87;;;;;;;-145.69;100.00;73681.44;5094866;28;20197;-81
2021/11/20 02:22:38;;;;;;;20.83;7.57;;;;;;;-145.69;100.00;73679.44;5094900;28;20198;-82
2021/11/20 02:25:04;;;;;;;18.27;8.00;;;;;;;-145.69;100.00;73689.41;5094440;28;20253;-81
2021/11/20 02:27:34;;;;;;;31.17;9.03;;;;;;;-145.69;100.00;73695.38;5094648;28;20251;-81
2021/11/20 02:30:22;;;;;;;22.20;8.13;;;;;;;-145.69;100.00;73699.34;5094675;28;20198;-81
2021/11/20 02:32:51;;;;;;;24.63;8.60;;;;;;;-145.69;100.00;73703.34;5094421;28;20194;-81
2021/11/20 02:35:23;;;;;;;19.40;7.63;;;;;;;-145.69;100.00;73707.31;5094249;28;20652;-82
2021/11/20 02:37:49;;;;;;;24.37;7.53;;;;;;;-145.69;100.00;73699.34;5094645;28;20292;-81
2021/11/20 02:40:17;;;;;;;27.60;7.93;;;;;;;-145.69;100.00;73695.38;5094521;28;20202;-81
2021/11/20 02:42:45;;;;;;;21.50;9.03;;;;;;;-145.69;100.00;73703.34;5094395;28;20231;-81
2021/11/20 02:45:27;;;;;;;21.77;8.30;;;;;;;-145.69;100.00;73691.38;5094237;28;20545;-81
2021/11/20 02:47:55;;;;;;;21.93;7.53;;;;;;;-145.69;100.00;73685.41;5094297;28;20202;-81
2021/11/20 02:50:34;;;;;;;26.47;8.33;;;;;;;-145.69;100.00;73679.44;5094101;28;20198;-81
2021/11/20 02:53:01;;;;;;;18.30;7.47;;;;;;;-145.69;100.00;73669.50;5094162;28;20200;-81
2021/11/20 02:55:28;;;;;;;27.27;7.70;;;;;;;-145.69;100.00;73653.56;5094091;28;20201;-81
2021/11/20 02:57:54;;;;;;;21.10;8.13;;;;;;;-145.69;100.00;73659.53;5093133;28;20261;-81
2021/11/20 03:00:22;;;;;;;18.47;6.80;;;;;;;-145.69;100.00;73653.56;5094003;28;20288;-82
2021/11/20 03:02:49;;;;;;;13.00;5.70;;;;;;;-145.69;100.00;73665.50;5093603;28;20198;-81
2021/11/20 03:05:16;;;;;;;16.17;6.10;;;;;;;-145.69;100.00;73675.47;5093485;28;20202;-81
2021/11/20 03:07:42;;;;;;;31.53;7.10;;;;;;;-145.69;100.00;73675.47;5093387;28;20271;-81
2021/11/20 03:10:10;;;;;;;16.60;6.23;;;;;;;-145.69;100.00;73683.44;5093317;28;20607;-81
2021/11/20 03:12:36;;;;;;;21.90;6.53;;;;;;;-145.69;100.00;73683.44;5093426;28;20198;-81
2021/11/20 03:15:06;;;;;;;18.40;6.53;;;;;;;-145.69;100.00;73687.41;5093389;28;20546;-81
2021/11/20 03:17:34;;;;;;;25.90;6.53;;;;;;;-145.69;100.00;73697.38;5093297;28;20221;-81
2021/11/20 03:20:01;;;;;;;26.17;6.20;;;;;;;-145.69;100.00;73717.28;5093159;28;20318;-81
2021/11/20 03:22:32;;;;;;;14.67;5.27;;;;;;;-145.69;100.00;73733.19;5093257;28;20228;-81
2021/11/20 03:24:59;;;;;;;32.40;6.03;;;;;;;-145.69;100.00;73745.16;5092863;28;20789;-81
2021/11/20 03:27:25;;;;;;;22.03;6.17;;;;;;;-145.69;100.00;73753.13;5093247;28;20247;-81
2021/11/20 03:29:52;;;;;;;23.47;6.00;;;;;;;-145.69;100.00;73747.13;5093283;28;20198;-81
2021/11/20 03:32:19;;;;;;;25.40;6.77;;;;;;;-145.69;100.00;73755.09;5093148;28;20263;-81
2021/11/20 03:34:47;;;;;;;16.53;6.40;;;;;;;-145.69;100.00;73763.06;5093081;28;20224;-81
2021/11/20 03:37:15;;;;;;;24.37;6.33;;;;;;;-145.69;100.00;73767.06;5092857;28;20226;-81
2021/11/20 03:39:42;;;;;;;29.37;5.77;;;;;;;-145.69;100.00;73779.00;5092941;28;20682;-81
2021/11/20 03:42:09;;;;;;;37.20;6.23;;;;;;;-145.69;100.00;73775.00;5092938;28;20727;-81
2021/11/20 03:44:36;;;;;;;53.67;6.90;;;;;;;-145.69;100.00;73784.97;5092986;28;20198;-82
2021/11/20 03:47:02;;;;;;;75.50;6.60;;;;;;;-145.69;100.00;73781.00;5092966;28;20251;-81
2021/11/20 03:49:29;;;;;;;43.20;6.00;;;;;;;-145.69;100.00;73775.00;5092942;28;20271;-81
2021/11/20 03:51:57;;;;;;;12.57;5.27;;;;;;;-145.69;100.00;73790.94;5092793;28;20203;-81
2021/11/20 03:54:24;;;;;;;12.63;4.63;;;;;;;-145.69;100.00;73810.84;5092763;28;20664;-80
2021/11/20 03:56:51;;;;;;;12.33;4.53;;;;;;;-145.69;100.00;73814.84;5092925;28;20194;-82
2021/11/20 03:59:18;;;;;;;9.33;3.90;;;;;;;-145.69;100.00;73828.78;5092910;28;20208;-81
2021/11/20 04:01:44;;;;;;;9.60;3.70;;;;;;;-145.69;100.00;73842.72;5093091;28;20298;-81
2021/11/20 04:04:11;;;;;;;7.07;3.47;;;;;;;-145.69;100.00;73838.72;5094872;28;20194;-81
2021/11/20 04:06:37;;;;;;;8.13;3.47;;;;;;;-145.69;100.00;73846.69;5092256;28;20198;-81
2021/11/20 04:09:06;;;;;;;7.27;3.40;;;;;;;-145.69;100.00;73850.69;5094454;28;20206;-80
2021/11/20 04:11:35;;;;;;;7.37;3.27;;;;;;;-145.69;100.00;73870.59;5096932;28;20206;-82
2021/11/20 04:14:02;;;;;;;7.37;3.53;;;;;;;-145.69;100.00;73866.59;5096718;28;20194;-81
2021/11/20 04:16:30;;;;;;;7.27;3.17;;;;;;;-145.69;100.00;73862.63;5096737;28;20661;-80
2021/11/20 04:18:57;;;;;;;9.67;3.93;;;;;;;-145.69;100.00;73826.78;5096281;28;20287;-81
2021/11/20 04:21:25;;;;;;;9.70;4.23;;;;;;;-145.69;100.00;73779.00;5096516;28;20734;-80
2021/11/20 04:23:52;;;;;;;15.67;4.33;;;;;;;-145.69;100.00;73751.13;5096607;28;20201;-79
2021/11/20 04:26:23;;;;;;;16.53;5.00;;;;;;;-145.69;100.00;73741.16;5096266;28;20635;-79
2021/11/20 04:28:50;;;;;;;10.40;4.27;;;;;;;-145.69;100.00;73729.22;5096581;28;20313;-79
2021/11/20 04:31:19;;;;;;;13.23;4.33;;;;;;;-145.69;100.00;73749.13;5096425;28;20198;-79
2021/11/20 04:33:46;;;;;;;12.43;4.13;;;;;;;-145.69;100.00;73775.00;5096553;28;20580;-80
2021/11/20 04:36:13;;;;;;;12.67;4.03;;;;;;;-145.69;100.00;73790.94;5096442;28;20264;-79
2021/11/20 04:38:39;;;;;;;12.43;4.47;;;;;;;-145.69;100.00;73798.91;5096272;28;20229;-80
2021/11/20 04:41:07;;;;;;;17.53;4.60;;;;;;;-145.69;100.00;73771.03;5096355;28;20210;-80
2021/11/20 04:43:35;;;;;;;16.93;5.03;;;;;;;-145.69;100.00;73755.09;5096068;28;20205;-79
2021/11/20 04:46:02;;;;;;;18.63;5.27;;;;;;;-145.69;100.00;73745.16;5095988;28;20718;-79
2021/11/20 04:48:28;;;;;;;16.10;5.13;;;;;;;-145.69;100.00;73751.13;5096224;28;20259;-80
2021/11/20 04:50:57;;;;;;;11.87;4.67;;;;;;;-145.69;100.00;73761.06;5096150;28;20202;-80
2021/11/20 04:53:25;;;;;;;11.80;4.47;;;;;;;-145.69;100.00;73759.09;5096122;28;20205;-80
2021/11/20 04:55:52;;;;;;;19.20;4.83;;;;;;;-145.69;100.00;73759.09;5096036;28;20198;-79
2021/11/20 04:58:19;;;;;;;17.40;4.47;;;;;;;-145.69;100.00;73735.19;5095794;28;20557;-79
2021/11/20 05:00:50;;;;;;;14.07;4.40;;;;;;;-145.69;100.00;73725.25;5095704;28;20206;-80
2021/11/20 05:03:17;;;;;;;17.73;4.53;;;;;;;-145.69;100.00;73707.31;5096015;28;20605;-80
2021/11/20 05:05:46;;;;;;;16.87;4.37;;;;;;;-145.69;100.00;73691.38;5095844;28;20205;-81
2021/11/20 05:08:12;;;;;;;13.47;3.97;;;;;;;-145.69;100.00;73691.38;5095797;28;20202;-80
2021/11/20 05:10:41;;;;;;;16.50;3.97;;;;;;;-145.69;100.00;73689.41;5095751;28;20255;-80
2021/11/20 05:13:08;;;;;;;9.00;3.50;;;;;;;-145.69;100.00;73687.41;5095388;28;20206;-80
2021/11/20 05:15:38;;;;;;;11.60;3.57;;;;;;;-145.69;100.00;73679.44;5095706;28;20202;-80
2021/11/20 05:18:06;;;;;;;10.80;3.40;;;;;;;-145.69;100.00;73667.50;5095567;28;20229;-81
2021/11/20 05:20:33;;;;;;;10.90;3.30;;;;;;;-145.69;100.00;73649.59;5094581;28;20720;-81
2021/11/20 05:23:00;;;;;;;19.90;3.73;;;;;;;-145.69;100.00;73621.72;5095368;28;20206;-81
2021/11/20 05:25:28;;;;;;;17.00;3.73;;;;;;;-145.69;100.00;73603.78;5095292;28;20279;-80
2021/11/20 05:27:55;;;;;;;14.77;3.70;;;;;;;-145.69;100.00;73601.81;5095088;28;20206;-80
2021/11/20 05:30:27;;;;;;;12.43;3.20;;;;;;;-145.69;100.00;73587.88;5095476;28;20542;-81
2021/11/20 05:32:55;;;;;;;12.47;3.33;;;;;;;-145.69;100.00;73587.88;5095514;28;20288;-82
2021/11/20 05:35:25;;;;;;;17.60;3.77;;;;;;;-145.69;100.00;73575.91;5095090;28;20649;-81
2021/11/20 05:37:51;;;;;;;18.20;3.87;;;;;;;-145.69;100.00;73565.97;5095101;28;20274;-81
2021/11/20 05:40:19;;;;;;;15.43;3.90;;;;;;;-145.69;100.00;73569.94;5095066;28;20202;-80
2021/11/20 05:42:49;;;;;;;8.53;2.93;;;;;;;-145.69;100.00;73579.91;5095147;28;20194;-81
2021/11/20 05:45:23;;;;;;;9.90;2.97;;;;;;;-145.69;100.00;73597.81;5095173;28;20198;-81
2021/11/20 05:47:50;;;;;;;7.23;3.07;;;;;;;-145.69;100.00;73617.72;5095075;28;20248;-81
2021/11/20 05:50:19;;;;;;;7.47;2.53;;;;;;;-145.69;100.00;73627.69;5094795;28;20595;-81
2021/11/20 05:52:49;;;;;;;7.67;2.77;;;;;;;-145.69;100.00;73627.69;5094736;28;20202;-81
2021/11/20 05:55:17;;;;;;;5.60;2.40;;;;;;;-145.69;100.00;73637.63;5094995;28;20202;-81
2021/11/20 05:57:43;;;;;;;12.23;2.57;;;;;;;-145.69;100.00;73619.72;5094841;28;20210;-80
2021/11/20 06:00:15;;;;;;;6.80;2.47;;;;;;;-145.69;100.00;73627.69;5095840;28;20255;-80
2021/11/20 06:02:42;;;;;;;7.70;2.70;;;;;;;-145.69;100.00;73631.66;5097107;28;20194;-81
2021/11/20 06:05:09;;;;;;;8.90;2.60;;;;;;;-145.69;100.00;73627.69;5094618;28;20206;-81
2021/11/20 06:07:36;;;;;;;5.23;2.13;;;;;;;-145.69;100.00;73651.56;5094620;28;20206;-81
2021/11/20 06:10:05;;;;;;;5.03;1.93;;;;;;;-145.69;100.00;73655.56;5094680;28;20259;-81
2021/11/20 06:12:32;;;;;;;4.27;2.03;;;;;;;-145.69;100.00;73647.59;5094535;28;20198;-80
2021/11/20 06:14:58;;;;;;;7.50;1.97;;;;;;;-145.69;100.00;73675.47;5094506;28;20205;-81
2021/11/20 06:17:25;;;;;;;7.23;2.20;;;;;;;-145.69;100.00;73695.38;5094360;28;20345;-81
2021/11/20 06:19:51;;;;;;;7.57;3.30;;;;;;;-145.69;100.00;73707.31;5094180;28;20233;-81
2021/11/20 06:22:20;;;;;;;7.10;3.10;;;;;;;-145.69;100.00;73721.25;5094514;28;20630;-81
2021/11/20 06:24:47;;;;;;;7.20;3.30;;;;;;;-145.69;100.00;73715.28;5093891;28;20230;-80
2021/11/20 06:27:15;;;;;;;6.97;2.50;;;;;;;-145.69;100.00;73709.31;5094170;28;20202;-80
2021/11/20 06:29:42;;;;;;;6.90;2.67;;;;;;;-145.69;100.00;73687.41;5094195;28;20202;-80
2021/11/20 06:32:09;;;;;;;4.77;2.20;;;;;;;-145.69;100.00;73687.41;5092967;28;20289;-80
2021/11/20 06:34:35;;;;;;;6.93;2.37;;;;;;;-145.69;100.00;73693.38;5094245;28;20259;-80
2021/11/20 06:37:02;;;;;;;7.30;2.87;;;;;;;-145.69;100.00;73693.38;5094221;28;20202;-80
2021/11/20 06:39:29;;;;;;;7.80;3.20;;;;;;;-145.69;100.00;73707.31;5094517;28;20275;-80
2021/11/20 06:41:57;;;;;;;7.93;3.00;;;;;;;-145.69;100.00;73715.28;5093997;28;20206;-80
2021/11/20 06:44:25;;;;;;;13.73;3.93;;;;;;;-145.69;100.00;73699.34;5093925;28;20194;-80
2021/11/20 06:46:51;;;;;;;5.60;2.73;;;;;;;-145.69;100.00;73699.34;5093705;28;20611;-80
2021/11/20 06:49:17;;;;;;;7.00;3.23;;;;;;;-145.69;100.00;73687.41;5093714;28;20608;-80
2021/11/20 06:51:44;;;;;;;9.77;2.93;;;;;;;-145.69;100.00;73685.41;5093938;28;20202;-80
2021/11/20 06:54:12;;;;;;;9.43;3.40;;;;;;;-145.69;100.00;73673.47;5093940;28;20202;-80
2021/11/20 06:56:47;;;;;;;7.77;3.27;;;;;;;-145.69;100.00;73671.47;5093699;28;20653;-80
2021/11/20 06:59:19;;;;;;;9.63;3.30;;;;;;;-145.69;100.00;73683.44;5093499;28;20229;-80
2021/11/20 07:01:48;;;;;;;11.87;3.20;;;;;;;-145.69;100.00;73691.38;5093794;28;20225;-80
2021/11/20 07:04:17;;;;;;;9.77;3.03;;;;;;;-145.69;100.00;73689.41;5093673;28;20198;-81
2021/11/20 07:06:47;;;;;;;6.77;2.53;;;;;;;-145.69;100.00;73695.38;5093577;28;20198;-80
2021/11/20 07:09:14;;;;;;;7.70;3.13;;;;;;;-145.69;100.00;73699.34;5093527;28;20247;-80
2021/11/20 07:11:40;;;;;;;5.47;2.40;;;;;;;-145.69;100.00;73707.31;5093453;28;20599;-80
2021/11/20 07:14:07;;;;;;;4.53;2.47;;;;;;;-145.69;100.00;73711.31;5093164;28;20259;-80
2021/11/20 07:16:34;;;;;;;6.40;2.57;;;;;;;-145.69;100.00;73719.25;5093545;28;20198;-80
2021/11/20 07:19:02;;;;;;;5.57;2.80;;;;;;;-145.69;100.00;73727.22;5093432;28;20226;-80
2021/11/20 07:21:29;;;;;;;7.63;2.97;;;;;;;-145.69;100.00;73725.25;5093224;28;20664;-80
2021/11/20 07:23:57;;;;;;;10.03;2.80;;;;;;;-145.69;100.00;73721.25;5093121;28;20198;-80
2021/11/20 07:26:25;;;;;;;12.20;3.30;;;;;;;-145.69;100.00;73707.31;5093164;28;20194;-80
2021/11/20 07:28:52;;;;;;;12.10;3.93;;;;;;;-145.69;100.00;73683.44;5093340;28;20258;-80
2021/11/20 07:31:20;;;;;;;9.67;3.37;;;;;;;-145.69;100.00;73687.41;5093342;28;20198;-80
2021/11/20 07:33:47;;;;;;;11.70;4.00;;;;;;;-145.69;100.00;73681.44;5093250;28;20590;-79
2021/11/20 07:36:15;;;;;;;10.07;3.43;;;;;;;-145.69;100.00;73669.50;5093161;28;20202;-80
2021/11/20 07:38:45;;;;;;;7.03;3.07;;;;;;;-145.69;100.00;73665.50;5093012;28;20225;-79
2021/11/20 07:41:12;;;;;;;11.83;3.70;;;;;;;-145.69;100.00;73649.59;5092848;28;20201;-79
2021/11/20 07:43:39;;;;;;;10.20;3.40;;;;;;;-145.69;100.00;73643.59;5092687;28;20271;-79
2021/11/20 07:46:08;;;;;;;19.27;7.80;;;;;;;-145.69;100.00;73647.59;5093138;28;20206;-79
2021/11/20 07:48:37;;;;;;;18.03;6.47;;;;;;;-145.69;100.00;73637.63;5092909;28;20194;-79
2021/11/20 07:51:05;;;;;;;12.33;4.90;;;;;;;-145.69;100.00;73625.69;5092960;28;20198;-79
2021/11/20 07:53:33;;;;;;;11.07;3.67;;;;;;;-145.69;100.00;73629.66;5092608;28;20926;-80
2021/11/20 07:56:00;;;;;;;51.63;13.00;;;;;;;-145.69;100.00;73623.69;5093121;28;20279;-81
2021/11/20 07:58:27;;;;;;;115.03;24.47;;;;;;;-145.69;100.00;73627.69;5092878;28;20226;-81
2021/11/20 08:00:54;;;;;;;26.13;8.40;;;;;;;-145.69;100.00;73635.66;5092735;28;20737;-81
2021/11/20 08:03:21;;;;;;;14.07;4.20;;;;;;;-145.69;100.00;73629.66;5092817;28;20197;-81
2021/11/20 08:05:49;;;;;;;9.57;3.20;;;;;;;-145.69;100.00;73627.69;5092730;28;20202;-81
2021/11/20 08:08:15;;;;;;;10.17;3.57;;;;;;;-145.69;100.00;73627.69;5094981;28;20197;-81
2021/11/20 08:10:43;;;;;;;12.83;4.17;;;;;;;-145.69;100.00;73619.72;5092718;28;20198;-81
2021/11/20 08:13:09;;;;;;;8.20;3.30;;;;;;;-145.69;100.00;73609.75;5092850;28;20198;-81
2021/11/20 08:15:36;;;;;;;8.17;3.47;;;;;;;-145.69;100.00;73613.75;5092544;28;20656;-81
2021/11/20 08:18:03;;;;;;;6.77;2.77;;;;;;;-145.69;100.00;73609.75;5092708;28;20210;-81
2021/11/20 08:20:33;;;;;;;9.00;3.30;;;;;;;-145.69;100.00;73597.81;5092522;28;20252;-80
2021/11/20 08:23:00;;;;;;;8.73;3.20;;;;;;;-145.69;100.00;73599.81;5092736;28;20206;-81
2021/11/20 08:25:28;;;;;;;9.93;3.33;;;;;;;-145.69;100.00;73587.88;5092417;28;20287;-81
2021/11/20 08:27:57;;;;;;;15.53;5.47;;;;;;;-145.69;100.00;73567.94;5092732;28;20199;-80
2021/11/20 08:30:27;;;;;;;27.70;8.53;;;;;;;-145.69;100.00;73544.06;5092993;28;20243;-81
2021/11/20 08:32:54;;;;;;;64.27;9.67;;;;;;;-145.69;100.00;73518.19;5092794;28;20289;-81
2021/11/20 08:35:22;;;;;;;55.43;9.30;;;;;;;-145.69;100.00;73494.28;5092588;28;20201;-81
2021/11/20 08:37:49;;;;;;;29.77;9.00;;;;;;;-145.69;100.00;73444.50;5093073;28;20244;-82
2021/11/20 08:40:18;;;;;;;47.57;10.67;;;;;;;-145.69;100.00;73400.72;5093120;28;20222;-82
2021/11/20 08:42:45;;;;;;;70.90;15.80;;;;;;;-145.69;100.00;73370.84;5092775;28;20669;-82
2021/11/20 08:45:16;;;;;;;131.47;38.43;;;;;;;-145.69;100.00;73358.91;5092763;28;20273;-83
2021/11/20 08:47:43;;;;;;;96.70;27.37;;;;;;;-145.69;100.00;73333.03;5092471;28;20198;-82
2021/11/20 08:50:12;;;;;;;74.27;19.57;;;;;;;-145.69;100.00;73327.06;5092813;28;20275;-83
2021/11/20 08:52:40;;;;;;;90.07;27.43;;;;;;;-145.69;100.00;73317.09;5092735;28;20198;-84
2021/11/20 08:55:08;;;;;;;125.00;24.93;;;;;;;-145.69;100.00;73297.19;5092472;28;20591;-81
2021/11/20 08:57:35;;;;;;;73.57;20.47;;;;;;;-145.69;100.00;73285.25;5096251;28;20198;-82
2021/11/20 09:00:01;;;;;;;97.10;25.50;;;;;;;-145.69;100.00;73277.28;5096028;28;20226;-84
2021/11/20 09:02:34;;;;;;;123.33;16.97;;;;;;;-145.69;100.00;73297.19;5095877;28;20251;-82
2021/11/20 09:05:10;;;;;;;58.60;11.60;;;;;;;-145.69;100.00;73313.13;5096274;28;20205;-81
2021/11/20 09:07:46;;;;;;;69.80;12.83;;;;;;;-145.69;100.00;73301.19;5096098;28;20198;-81
2021/11/20 09:10:23;;;;;;;73.53;16.50;;;;;;;-145.69;100.00;73307.16;5105404;28;20254;-80
2021/11/20 09:12:55;;;;;;;123.40;11.67;;;;;;;-145.69;100.00;73309.13;5116206;28;20660;-80
2021/11/20 09:15:26;;;;;;;25.13;5.67;;;;;;;-145.69;100.00;73289.22;5116521;28;20258;-81
2021/11/20 09:17:55;;;;;;;17.17;5.07;;;;;;;-145.69;100.00;73289.22;5116590;28;20205;-80
2021/11/20 09:20:23;;;;;;;17.03;5.80;;;;;;;-145.69;100.00;73301.19;5115808;28;20225;-80
2021/11/20 09:22:50;;;;;;;14.73;6.03;;;;;;;-145.69;100.00;73297.19;5116069;28;20205;-82
2021/11/20 09:25:17;;;;;;;14.87;6.70;;;;;;;-145.69;100.00;73285.25;5115434;28;20305;-82
2021/11/20 09:27:44;;;;;;;31.27;11.13;;;;;;;-145.69;100.00;73265.34;5116014;28;20254;-80
2021/11/20 09:30:13;;;;;;;31.13;13.53;;;;;;;-145.69;100.00;73265.34;5115945;28;20201;-81
2021/11/20 09:32:40;;;;;;;19.17;8.90;;;;;;;-145.69;100.00;73243.44;5115933;28;20201;-79
2021/11/20 09:35:08;;;;;;;18.40;8.67;;;;;;;-145.69;100.00;73237.47;5115875;28;20201;-78
2021/11/20 09:37:35;;;;;;;16.77;7.67;;;;;;;-145.69;100.00;73215.56;5115606;28;20655;-79
2021/11/20 09:40:02;;;;;;;14.80;8.23;;;;;;;-145.69;100.00;73215.56;5115623;28;20282;-78
2021/11/20 09:42:36;;;;;;;12.97;5.73;;;;;;;-145.69;100.00;73203.63;5115625;28;20208;-78
2021/11/20 09:45:09;;;;;;;13.77;7.20;;;;;;;-145.69;100.00;73191.69;5115791;28;20659;-79
2021/11/20 09:47:38;;;;;;;17.27;7.13;;;;;;;-145.69;100.00;73173.75;5115477;28;20722;-78
2021/11/20 09:50:11;;;;;;;12.40;6.40;;;;;;;-145.69;100.00;73165.81;5115620;28;20221;-79
2021/11/20 09:52:38;;;;;;;10.07;5.07;;;;;;;-145.69;100.00;73157.84;5115386;28;20197;-81
2021/11/20 09:55:06;;;;;;;12.90;5.83;;;;;;;-145.69;100.00;73145.91;5115515;28;20291;-81
2021/11/20 09:57:38;;;;;;;10.40;5.30;;;;;;;-145.69;100.00;73135.94;5115644;28;20258;-80
2021/11/20 10:00:33;;;;;;;11.33;5.90;;;;;;;-145.69;100.00;73126.00;5115344;28;20320;-80
2021/11/20 10:03:03;;;;;;;9.23;5.30;;;;;;;-145.69;100.00;73100.09;5115251;28;20784;-80
2021/11/20 10:05:34;;;;;;;14.87;7.27;;;;;;;-145.69;100.00;73092.16;5114180;28;20204;-80
2021/11/20 10:08:12;;;;;;;14.10;5.87;;;;;;;-145.69;100.00;73074.22;5096660;28;20194;-78
2021/11/20 10:10:45;;;;;;;8.50;5.17;;;;;;;-145.69;100.00;73058.31;5094769;28;20288;-80
2021/11/20 10:13:14;;;;;;;17.03;6.23;;;;;;;-145.69;100.00;73056.31;5094529;28;20198;-79
2021/11/20 10:15:43;;;;;;;13.57;6.53;;;;;;;-145.69;100.00;73050.34;5094736;28;20194;-79
2021/11/20 10:18:23;;;;;;;11.13;5.80;;;;;;;-145.69;100.00;73050.34;5094578;28;20224;-79
2021/11/20 10:20:55;;;;;;;10.60;5.83;;;;;;;-145.69;100.00;73046.34;5094537;28;20403;-78
2021/11/20 10:23:28;;;;;;;16.23;6.60;;;;;;;-145.69;100.00;73038.41;5094720;28;20251;-79
2021/11/20 10:26:14;;;;;;;14.40;5.80;;;;;;;-145.69;100.00;73034.41;5094317;28;20236;-79
2021/11/20 10:28:52;;;;;;;14.10;6.40;;;;;;;-145.69;100.00;73038.41;5094426;28;20202;-79
2021/11/20 10:31:22;;;;;;;14.27;6.60;;;;;;;-145.69;100.00;73014.50;5094253;28;20233;-79
2021/11/20 10:33:55;;;;;;;14.40;6.83;;;;;;;-145.69;100.00;72996.59;5094340;28;20202;-79
2021/11/20 10:36:31;;;;;;;21.13;7.97;;;;;;;-145.69;100.00;72990.63;5094358;28;20202;-79
2021/11/20 10:39:00;;;;;;;15.63;7.43;;;;;;;-145.69;100.00;72982.66;5094322;28;20212;-81
2021/11/20 10:41:35;;;;;;;13.13;6.83;;;;;;;-145.69;100.00;72972.72;5094164;28;20259;-80
2021/11/20 10:44:12;;;;;;;17.00;7.60;;;;;;;-145.69;100.00;72970.72;5094180;28;20201;-79
2021/11/20 10:46:53;;;;;;;16.53;7.80;;;;;;;-145.69;100.00;72962.75;5094149;28;20564;-81
2021/11/20 10:49:35;;;;;;;16.60;7.30;;;;;;;-145.69;100.00;72958.78;5094400;28;20202;-81
2021/11/20 10:52:15;;;;;;;13.17;7.03;;;;;;;-145.69;100.00;72946.81;5093976;28;20198;-81
2021/11/20 10:55:13;;;;;;;15.80;7.87;;;;;;;-145.69;100.00;72944.84;5093968;28;20197;-81
2021/11/20 10:58:03;;;;;;;15.60;7.20;;;;;;;-145.69;100.00;72918.97;5094050;28;20640;-81
2021/11/20 11:00:42;;;;;;;16.20;7.33;;;;;;;-145.69;100.00;72909.00;5082207;28;20233;-81
2021/11/20 11:03:32;;;;;;;14.90;7.10;;;;;;;-145.69;100.00;72891.09;5093364;28;20205;-81
2021/11/20 11:06:34;;;;;;;15.60;7.50;;;;;;;-145.69;100.00;72877.16;5093283;28;20194;-80
2021/11/20 11:09:10;;;;;;;13.97;6.37;;;;;;;-145.69;100.00;72857.25;5093799;28;20208;-81
2021/11/20 11:11:40;;;;;;;16.53;7.43;;;;;;;-145.69;100.00;72853.28;5093588;28;20201;-81